sensor_id;sensor_type;location;lat;lon;timestamp;P1;durP1;ratioP1;P2;durP2;ratioP2
11039;SDS011;5573;49.592;8.662;2022-12-07T00:02:16;100.40;;;94.87;;
11039;SDS011;5573;49.592;8.662;2022-12-07T00:05:04;100.57;;;95.13;;
11039;SDS011;5573;49.592;8.662;2022-12-07T00:07:52;97.60;;;92.40;;
11039;SDS011;5573;49.592;8.662;2022-12-07T00:10:40;103.47;;;97.63;;
11039;SDS011;5573;49.592;8.662;2022-12-07T00:13:30;92.53;;;87.47;;
11039;SDS011;5573;49.592;8.662;2022-12-07T00:16:19;94.27;;;89.20;;
11039;SDS011;5573;49.592;8.662;2022-12-07T00:19:09;94.00;;;88.80;;
11039;SDS011;5573;49.592;8.662;2022-12-07T00:21:58;102.83;;;97.20;;
11039;SDS011;5573;49.592;8.662;2022-12-07T00:24:46;95.27;;;90.13;;
11039;SDS011;5573;49.592;8.662;2022-12-07T00:27:34;97.27;;;91.97;;
11039;SDS011;5573;49.592;8.662;2022-12-07T00:30:23;106.37;;;100.57;;
11039;SDS011;5573;49.592;8.662;2022-12-07T00:33:11;99.90;;;94.23;;
11039;SDS011;5573;49.592;8.662;2022-12-07T00:36:00;100.47;;;95.00;;
11039;SDS011;5573;49.592;8.662;2022-12-07T00:38:49;102.43;;;96.87;;
11039;SDS011;5573;49.592;8.662;2022-12-07T00:41:37;94.93;;;89.77;;
11039;SDS011;5573;49.592;8.662;2022-12-07T00:44:25;92.47;;;87.47;;
11039;SDS011;5573;49.592;8.662;2022-12-07T00:47:14;104.93;;;99.17;;
11039;SDS011;5573;49.592;8.662;2022-12-07T00:50:02;90.10;;;85.20;;
11039;SDS011;5573;49.592;8.662;2022-12-07T00:52:50;103.83;;;98.30;;
11039;SDS011;5573;49.592;8.662;2022-12-07T00:55:38;100.27;;;94.73;;
11039;SDS011;5573;49.592;8.662;2022-12-07T00:58:26;101.20;;;95.80;;
11039;SDS011;5573;49.592;8.662;2022-12-07T01:01:14;102.37;;;96.77;;
11039;SDS011;5573;49.592;8.662;2022-12-07T01:04:04;106.40;;;100.53;;
11039;SDS011;5573;49.592;8.662;2022-12-07T01:06:52;99.67;;;94.37;;
11039;SDS011;5573;49.592;8.662;2022-12-07T01:09:40;95.77;;;90.53;;
11039;SDS011;5573;49.592;8.662;2022-12-07T01:12:28;91.83;;;86.90;;
11039;SDS011;5573;49.592;8.662;2022-12-07T01:15:16;100.43;;;94.83;;
11039;SDS011;5573;49.592;8.662;2022-12-07T01:18:04;95.43;;;90.13;;
11039;SDS011;5573;49.592;8.662;2022-12-07T01:21:00;105.33;;;99.67;;
11039;SDS011;5573;49.592;8.662;2022-12-07T01:23:50;93.30;;;88.37;;
11039;SDS011;5573;49.592;8.662;2022-12-07T01:26:38;94.20;;;89.00;;
11039;SDS011;5573;49.592;8.662;2022-12-07T01:29:26;102.27;;;96.83;;
11039;SDS011;5573;49.592;8.662;2022-12-07T01:32:14;102.10;;;96.47;;
11039;SDS011;5573;49.592;8.662;2022-12-07T01:35:03;98.57;;;92.63;;
11039;SDS011;5573;49.592;8.662;2022-12-07T01:37:52;106.40;;;100.47;;
11039;SDS011;5573;49.592;8.662;2022-12-07T01:40:40;97.07;;;91.77;;
11039;SDS011;5573;49.592;8.662;2022-12-07T01:43:29;96.07;;;91.00;;
11039;SDS011;5573;49.592;8.662;2022-12-07T01:46:18;107.53;;;101.70;;
11039;SDS011;5573;49.592;8.662;2022-12-07T01:49:07;97.57;;;92.23;;
11039;SDS011;5573;49.592;8.662;2022-12-07T01:52:00;98.03;;;92.70;;
11039;SDS011;5573;49.592;8.662;2022-12-07T01:55:03;91.03;;;86.07;;
11039;SDS011;5573;49.592;8.662;2022-12-07T01:57:55;88.20;;;83.53;;
11039;SDS011;5573;49.592;8.662;2022-12-07T02:00:43;98.80;;;93.50;;
11039;SDS011;5573;49.592;8.662;2022-12-07T02:03:32;91.60;;;86.63;;
11039;SDS011;5573;49.592;8.662;2022-12-07T02:06:25;89.47;;;84.70;;
11039;SDS011;5573;49.592;8.662;2022-12-07T02:09:13;95.60;;;90.43;;
11039;SDS011;5573;49.592;8.662;2022-12-07T02:12:03;86.27;;;81.57;;
11039;SDS011;5573;49.592;8.662;2022-12-07T02:14:52;92.97;;;87.97;;
11039;SDS011;5573;49.592;8.662;2022-12-07T02:17:42;101.97;;;96.30;;
11039;SDS011;5573;49.592;8.662;2022-12-07T02:20:35;84.60;;;80.07;;
11039;SDS011;5573;49.592;8.662;2022-12-07T02:23:36;92.67;;;87.73;;
11039;SDS011;5573;49.592;8.662;2022-12-07T02:26:53;95.57;;;90.40;;
11039;SDS011;5573;49.592;8.662;2022-12-07T02:30:01;94.63;;;89.60;;
11039;SDS011;5573;49.592;8.662;2022-12-07T02:32:54;90.20;;;85.30;;
11039;SDS011;5573;49.592;8.662;2022-12-07T02:35:48;88.00;;;83.10;;
11039;SDS011;5573;49.592;8.662;2022-12-07T02:38:43;87.63;;;82.70;;
11039;SDS011;5573;49.592;8.662;2022-12-07T02:41:36;91.50;;;86.17;;
11039;SDS011;5573;49.592;8.662;2022-12-07T02:44:28;91.33;;;86.47;;
11039;SDS011;5573;49.592;8.662;2022-12-07T02:47:19;93.53;;;88.50;;
11039;SDS011;5573;49.592;8.662;2022-12-07T02:50:11;80.77;;;75.93;;
11039;SDS011;5573;49.592;8.662;2022-12-07T02:52:59;91.97;;;86.97;;
11039;SDS011;5573;49.592;8.662;2022-12-07T02:55:47;96.37;;;91.17;;
11039;SDS011;5573;49.592;8.662;2022-12-07T02:58:39;94.30;;;89.13;;
11039;SDS011;5573;49.592;8.662;2022-12-07T03:01:35;99.47;;;94.00;;
11039;SDS011;5573;49.592;8.662;2022-12-07T03:04:40;100.63;;;95.20;;
11039;SDS011;5573;49.592;8.662;2022-12-07T03:07:33;98.00;;;92.70;;
11039;SDS011;5573;49.592;8.662;2022-12-07T03:10:28;84.70;;;80.10;;
11039;SDS011;5573;49.592;8.662;2022-12-07T03:13:25;92.50;;;87.57;;
11039;SDS011;5573;49.592;8.662;2022-12-07T03:16:19;98.63;;;93.37;;
11039;SDS011;5573;49.592;8.662;2022-12-07T03:19:11;99.23;;;93.73;;
11039;SDS011;5573;49.592;8.662;2022-12-07T03:22:06;96.40;;;91.07;;
11039;SDS011;5573;49.592;8.662;2022-12-07T03:24:57;93.87;;;88.87;;
11039;SDS011;5573;49.592;8.662;2022-12-07T03:27:49;95.20;;;89.80;;
11039;SDS011;5573;49.592;8.662;2022-12-07T03:30:44;107.10;;;101.17;;
11039;SDS011;5573;49.592;8.662;2022-12-07T03:33:37;100.83;;;95.40;;
11039;SDS011;5573;49.592;8.662;2022-12-07T03:36:30;99.73;;;94.20;;
11039;SDS011;5573;49.592;8.662;2022-12-07T03:39:25;99.63;;;94.27;;
11039;SDS011;5573;49.592;8.662;2022-12-07T03:42:18;108.93;;;102.97;;
11039;SDS011;5573;49.592;8.662;2022-12-07T03:45:07;101.20;;;95.67;;
11039;SDS011;5573;49.592;8.662;2022-12-07T03:47:59;96.10;;;90.77;;
11039;SDS011;5573;49.592;8.662;2022-12-07T03:50:54;102.37;;;96.90;;
11039;SDS011;5573;49.592;8.662;2022-12-07T03:53:48;96.40;;;91.07;;
11039;SDS011;5573;49.592;8.662;2022-12-07T03:56:44;87.53;;;82.90;;
11039;SDS011;5573;49.592;8.662;2022-12-07T03:59:33;94.50;;;89.50;;
11039;SDS011;5573;49.592;8.662;2022-12-07T04:02:21;84.33;;;79.83;;
11039;SDS011;5573;49.592;8.662;2022-12-07T04:05:11;100.73;;;95.37;;
11039;SDS011;5573;49.592;8.662;2022-12-07T04:07:59;93.93;;;88.87;;
11039;SDS011;5573;49.592;8.662;2022-12-07T04:10:47;111.00;;;105.13;;
11039;SDS011;5573;49.592;8.662;2022-12-07T04:13:36;98.37;;;93.03;;
11039;SDS011;5573;49.592;8.662;2022-12-07T04:16:38;95.47;;;90.27;;
11039;SDS011;5573;49.592;8.662;2022-12-07T04:19:32;91.37;;;86.17;;
11039;SDS011;5573;49.592;8.662;2022-12-07T04:22:21;88.97;;;84.20;;
11039;SDS011;5573;49.592;8.662;2022-12-07T04:25:09;97.37;;;92.17;;
11039;SDS011;5573;49.592;8.662;2022-12-07T04:27:57;97.70;;;92.40;;
11039;SDS011;5573;49.592;8.662;2022-12-07T04:30:46;103.13;;;97.63;;
11039;SDS011;5573;49.592;8.662;2022-12-07T04:33:34;104.77;;;99.13;;
11039;SDS011;5573;49.592;8.662;2022-12-07T04:36:23;105.33;;;99.63;;
11039;SDS011;5573;49.592;8.662;2022-12-07T04:39:13;100.03;;;94.77;;
11039;SDS011;5573;49.592;8.662;2022-12-07T04:42:05;110.87;;;104.63;;
11039;SDS011;5573;49.592;8.662;2022-12-07T04:44:53;105.97;;;100.27;;
11039;SDS011;5573;49.592;8.662;2022-12-07T04:47:42;99.90;;;94.40;;
11039;SDS011;5573;49.592;8.662;2022-12-07T04:50:30;95.67;;;90.57;;
11039;SDS011;5573;49.592;8.662;2022-12-07T04:53:18;98.20;;;92.93;;
11039;SDS011;5573;49.592;8.662;2022-12-07T04:56:06;93.37;;;88.30;;
11039;SDS011;5573;49.592;8.662;2022-12-07T04:58:54;100.17;;;94.73;;
11039;SDS011;5573;49.592;8.662;2022-12-07T05:01:43;89.67;;;84.83;;
11039;SDS011;5573;49.592;8.662;2022-12-07T05:04:32;95.33;;;90.17;;
11039;SDS011;5573;49.592;8.662;2022-12-07T05:07:20;107.17;;;101.10;;
11039;SDS011;5573;49.592;8.662;2022-12-07T05:10:09;103.53;;;97.97;;
11039;SDS011;5573;49.592;8.662;2022-12-07T05:12:57;107.33;;;101.57;;
11039;SDS011;5573;49.592;8.662;2022-12-07T05:15:46;99.67;;;94.40;;
11039;SDS011;5573;49.592;8.662;2022-12-07T05:18:34;111.00;;;105.07;;
11039;SDS011;5573;49.592;8.662;2022-12-07T05:21:23;99.30;;;93.80;;
11039;SDS011;5573;49.592;8.662;2022-12-07T05:24:12;104.73;;;99.07;;
11039;SDS011;5573;49.592;8.662;2022-12-07T05:27:01;105.00;;;98.97;;
11039;SDS011;5573;49.592;8.662;2022-12-07T05:29:49;112.97;;;106.83;;
11039;SDS011;5573;49.592;8.662;2022-12-07T05:32:37;103.13;;;97.53;;
11039;SDS011;5573;49.592;8.662;2022-12-07T05:35:25;104.83;;;99.10;;
11039;SDS011;5573;49.592;8.662;2022-12-07T05:38:14;103.77;;;98.10;;
11039;SDS011;5573;49.592;8.662;2022-12-07T05:41:03;104.60;;;98.90;;
11039;SDS011;5573;49.592;8.662;2022-12-07T05:43:52;102.30;;;96.73;;
11039;SDS011;5573;49.592;8.662;2022-12-07T05:46:40;105.80;;;100.00;;
11039;SDS011;5573;49.592;8.662;2022-12-07T05:49:28;97.93;;;92.53;;
11039;SDS011;5573;49.592;8.662;2022-12-07T05:52:16;103.17;;;97.53;;
11039;SDS011;5573;49.592;8.662;2022-12-07T05:55:06;113.77;;;107.40;;
11039;SDS011;5573;49.592;8.662;2022-12-07T05:57:54;99.93;;;94.47;;
11039;SDS011;5573;49.592;8.662;2022-12-07T06:01:00;99.67;;;94.23;;
11039;SDS011;5573;49.592;8.662;2022-12-07T06:03:48;105.67;;;99.77;;
11039;SDS011;5573;49.592;8.662;2022-12-07T06:06:36;99.33;;;93.83;;
11039;SDS011;5573;49.592;8.662;2022-12-07T06:09:24;98.80;;;93.37;;
11039;SDS011;5573;49.592;8.662;2022-12-07T06:12:15;99.30;;;93.77;;
11039;SDS011;5573;49.592;8.662;2022-12-07T06:15:20;86.20;;;81.40;;
11039;SDS011;5573;49.592;8.662;2022-12-07T06:18:09;99.27;;;93.90;;
11039;SDS011;5573;49.592;8.662;2022-12-07T06:20:57;103.73;;;97.97;;
11039;SDS011;5573;49.592;8.662;2022-12-07T06:23:45;96.10;;;90.73;;
11039;SDS011;5573;49.592;8.662;2022-12-07T06:26:34;102.13;;;96.47;;
11039;SDS011;5573;49.592;8.662;2022-12-07T06:29:23;101.33;;;95.67;;
11039;SDS011;5573;49.592;8.662;2022-12-07T06:32:12;109.67;;;103.70;;
11039;SDS011;5573;49.592;8.662;2022-12-07T06:35:00;104.47;;;98.60;;
11039;SDS011;5573;49.592;8.662;2022-12-07T06:37:48;108.07;;;102.23;;
11039;SDS011;5573;49.592;8.662;2022-12-07T06:40:36;107.00;;;101.13;;
11039;SDS011;5573;49.592;8.662;2022-12-07T06:43:24;97.37;;;92.07;;
11039;SDS011;5573;49.592;8.662;2022-12-07T06:46:13;93.90;;;88.70;;
11039;SDS011;5573;49.592;8.662;2022-12-07T06:49:01;98.80;;;93.47;;
11039;SDS011;5573;49.592;8.662;2022-12-07T06:51:50;103.00;;;97.27;;
11039;SDS011;5573;49.592;8.662;2022-12-07T06:54:38;104.63;;;98.80;;
11039;SDS011;5573;49.592;8.662;2022-12-07T06:57:26;93.63;;;88.60;;
11039;SDS011;5573;49.592;8.662;2022-12-07T07:00:14;96.87;;;91.60;;
11039;SDS011;5573;49.592;8.662;2022-12-07T07:03:09;87.87;;;83.03;;
11039;SDS011;5573;49.592;8.662;2022-12-07T07:05:37;103.67;;;97.97;;
11039;SDS011;5573;49.592;8.662;2022-12-07T07:08:04;96.80;;;91.47;;
11039;SDS011;5573;49.592;8.662;2022-12-07T07:10:49;89.63;;;84.63;;
11039;SDS011;5573;49.592;8.662;2022-12-07T07:13:17;102.33;;;96.70;;
11039;SDS011;5573;49.592;8.662;2022-12-07T07:15:44;99.47;;;93.63;;
11039;SDS011;5573;49.592;8.662;2022-12-07T07:18:13;104.87;;;99.17;;
11039;SDS011;5573;49.592;8.662;2022-12-07T07:20:41;101.07;;;95.53;;
11039;SDS011;5573;49.592;8.662;2022-12-07T07:23:09;104.87;;;99.07;;
11039;SDS011;5573;49.592;8.662;2022-12-07T07:25:37;104.80;;;98.90;;
11039;SDS011;5573;49.592;8.662;2022-12-07T07:28:05;101.93;;;96.37;;
11039;SDS011;5573;49.592;8.662;2022-12-07T07:30:33;103.57;;;97.97;;
11039;SDS011;5573;49.592;8.662;2022-12-07T07:33:01;101.83;;;96.30;;
11039;SDS011;5573;49.592;8.662;2022-12-07T07:35:32;96.07;;;90.73;;
11039;SDS011;5573;49.592;8.662;2022-12-07T07:38:00;101.83;;;96.13;;
11039;SDS011;5573;49.592;8.662;2022-12-07T07:40:29;109.80;;;103.70;;
11039;SDS011;5573;49.592;8.662;2022-12-07T07:42:57;95.33;;;90.00;;
11039;SDS011;5573;49.592;8.662;2022-12-07T07:45:25;105.00;;;99.23;;
11039;SDS011;5573;49.592;8.662;2022-12-07T07:47:54;104.47;;;98.80;;
11039;SDS011;5573;49.592;8.662;2022-12-07T07:50:22;100.70;;;95.03;;
11039;SDS011;5573;49.592;8.662;2022-12-07T07:52:51;100.57;;;94.93;;
11039;SDS011;5573;49.592;8.662;2022-12-07T07:55:19;101.67;;;95.93;;
11039;SDS011;5573;49.592;8.662;2022-12-07T07:57:47;105.70;;;99.73;;
11039;SDS011;5573;49.592;8.662;2022-12-07T08:00:20;96.13;;;90.70;;
11039;SDS011;5573;49.592;8.662;2022-12-07T08:02:48;106.00;;;100.23;;
11039;SDS011;5573;49.592;8.662;2022-12-07T08:05:16;102.03;;;96.40;;
11039;SDS011;5573;49.592;8.662;2022-12-07T08:07:44;110.07;;;104.03;;
11039;SDS011;5573;49.592;8.662;2022-12-07T08:10:13;115.10;;;108.80;;
11039;SDS011;5573;49.592;8.662;2022-12-07T08:12:42;114.33;;;108.07;;
11039;SDS011;5573;49.592;8.662;2022-12-07T08:15:25;103.03;;;97.43;;
11039;SDS011;5573;49.592;8.662;2022-12-07T08:17:53;111.00;;;104.83;;
11039;SDS011;5573;49.592;8.662;2022-12-07T08:20:21;115.73;;;109.40;;
11039;SDS011;5573;49.592;8.662;2022-12-07T08:22:49;107.57;;;101.60;;
11039;SDS011;5573;49.592;8.662;2022-12-07T08:25:18;116.87;;;110.43;;
11039;SDS011;5573;49.592;8.662;2022-12-07T08:27:46;107.23;;;101.03;;
11039;SDS011;5573;49.592;8.662;2022-12-07T08:30:13;111.63;;;105.57;;
11039;SDS011;5573;49.592;8.662;2022-12-07T08:32:41;117.33;;;110.87;;
11039;SDS011;5573;49.592;8.662;2022-12-07T08:35:09;115.33;;;108.93;;
11039;SDS011;5573;49.592;8.662;2022-12-07T08:37:36;118.07;;;111.50;;
11039;SDS011;5573;49.592;8.662;2022-12-07T08:40:05;116.40;;;110.00;;
11039;SDS011;5573;49.592;8.662;2022-12-07T08:42:36;112.47;;;106.17;;
11039;SDS011;5573;49.592;8.662;2022-12-07T08:45:08;107.80;;;101.93;;
11039;SDS011;5573;49.592;8.662;2022-12-07T08:47:37;114.13;;;107.77;;
11039;SDS011;5573;49.592;8.662;2022-12-07T08:50:07;119.30;;;112.70;;
11039;SDS011;5573;49.592;8.662;2022-12-07T08:52:37;113.50;;;107.23;;
11039;SDS011;5573;49.592;8.662;2022-12-07T08:55:08;113.57;;;107.23;;
11039;SDS011;5573;49.592;8.662;2022-12-07T08:57:39;111.13;;;105.07;;
11039;SDS011;5573;49.592;8.662;2022-12-07T09:00:09;112.70;;;106.50;;
11039;SDS011;5573;49.592;8.662;2022-12-07T09:02:38;102.40;;;96.77;;
11039;SDS011;5573;49.592;8.662;2022-12-07T09:05:06;115.87;;;109.47;;
11039;SDS011;5573;49.592;8.662;2022-12-07T09:07:42;113.37;;;107.03;;
11039;SDS011;5573;49.592;8.662;2022-12-07T09:10:11;117.23;;;110.67;;
11039;SDS011;5573;49.592;8.662;2022-12-07T09:12:40;117.10;;;110.60;;
11039;SDS011;5573;49.592;8.662;2022-12-07T09:15:08;110.30;;;104.30;;
11039;SDS011;5573;49.592;8.662;2022-12-07T09:17:36;114.20;;;108.00;;
11039;SDS011;5573;49.592;8.662;2022-12-07T09:20:04;119.47;;;112.87;;
11039;SDS011;5573;49.592;8.662;2022-12-07T09:22:33;108.53;;;102.60;;
11039;SDS011;5573;49.592;8.662;2022-12-07T09:25:01;120.30;;;113.70;;
11039;SDS011;5573;49.592;8.662;2022-12-07T09:27:30;110.43;;;104.37;;
11039;SDS011;5573;49.592;8.662;2022-12-07T09:29:59;108.43;;;102.57;;
11039;SDS011;5573;49.592;8.662;2022-12-07T09:32:27;107.93;;;101.80;;
11039;SDS011;5573;49.592;8.662;2022-12-07T09:34:55;114.70;;;108.47;;
11039;SDS011;5573;49.592;8.662;2022-12-07T09:37:23;114.70;;;108.20;;
11039;SDS011;5573;49.592;8.662;2022-12-07T09:39:51;113.30;;;107.00;;
11039;SDS011;5573;49.592;8.662;2022-12-07T09:42:24;119.80;;;112.90;;
11039;SDS011;5573;49.592;8.662;2022-12-07T09:44:56;106.47;;;100.77;;
11039;SDS011;5573;49.592;8.662;2022-12-07T09:47:26;110.93;;;104.90;;
11039;SDS011;5573;49.592;8.662;2022-12-07T09:49:55;113.33;;;107.17;;
11039;SDS011;5573;49.592;8.662;2022-12-07T09:52:31;102.70;;;96.80;;
11039;SDS011;5573;49.592;8.662;2022-12-07T09:55:07;110.13;;;104.13;;
11039;SDS011;5573;49.592;8.662;2022-12-07T09:57:38;114.67;;;108.30;;
11039;SDS011;5573;49.592;8.662;2022-12-07T10:00:10;111.97;;;105.67;;
11039;SDS011;5573;49.592;8.662;2022-12-07T10:02:41;118.53;;;112.00;;
11039;SDS011;5573;49.592;8.662;2022-12-07T10:05:13;110.23;;;103.90;;
11039;SDS011;5573;49.592;8.662;2022-12-07T10:07:49;123.27;;;116.63;;
11039;SDS011;5573;49.592;8.662;2022-12-07T10:10:19;103.77;;;98.10;;
11039;SDS011;5573;49.592;8.662;2022-12-07T10:12:53;109.97;;;103.87;;
11039;SDS011;5573;49.592;8.662;2022-12-07T10:15:22;102.57;;;96.00;;
11039;SDS011;5573;49.592;8.662;2022-12-07T10:17:51;100.97;;;95.43;;
11039;SDS011;5573;49.592;8.662;2022-12-07T10:20:20;109.67;;;103.70;;
11039;SDS011;5573;49.592;8.662;2022-12-07T10:22:57;117.43;;;110.93;;
11039;SDS011;5573;49.592;8.662;2022-12-07T10:25:30;114.30;;;108.17;;
11039;SDS011;5573;49.592;8.662;2022-12-07T10:28:00;111.87;;;105.63;;
11039;SDS011;5573;49.592;8.662;2022-12-07T10:30:48;113.53;;;107.40;;
11039;SDS011;5573;49.592;8.662;2022-12-07T10:33:29;105.33;;;99.53;;
11039;SDS011;5573;49.592;8.662;2022-12-07T10:35:58;104.13;;;98.37;;
11039;SDS011;5573;49.592;8.662;2022-12-07T10:38:27;112.90;;;106.67;;
11039;SDS011;5573;49.592;8.662;2022-12-07T10:41:03;108.80;;;102.77;;
11039;SDS011;5573;49.592;8.662;2022-12-07T10:43:32;109.73;;;103.57;;
11039;SDS011;5573;49.592;8.662;2022-12-07T10:46:22;105.57;;;99.77;;
11039;SDS011;5573;49.592;8.662;2022-12-07T10:49:28;113.03;;;106.90;;
11039;SDS011;5573;49.592;8.662;2022-12-07T10:52:13;109.20;;;103.33;;
11039;SDS011;5573;49.592;8.662;2022-12-07T10:54:55;109.30;;;103.10;;
11039;SDS011;5573;49.592;8.662;2022-12-07T10:57:39;106.77;;;100.87;;
11039;SDS011;5573;49.592;8.662;2022-12-07T11:00:16;116.30;;;109.83;;
11039;SDS011;5573;49.592;8.662;2022-12-07T11:02:50;119.27;;;112.73;;
11039;SDS011;5573;49.592;8.662;2022-12-07T11:05:30;108.27;;;102.40;;
11039;SDS011;5573;49.592;8.662;2022-12-07T11:08:09;113.87;;;107.60;;
11039;SDS011;5573;49.592;8.662;2022-12-07T11:10:47;104.07;;;98.40;;
11039;SDS011;5573;49.592;8.662;2022-12-07T11:13:23;107.47;;;101.53;;
11039;SDS011;5573;49.592;8.662;2022-12-07T11:15:59;121.20;;;114.47;;
11039;SDS011;5573;49.592;8.662;2022-12-07T11:18:42;116.13;;;109.87;;
11039;SDS011;5573;49.592;8.662;2022-12-07T11:21:21;112.27;;;106.10;;
11039;SDS011;5573;49.592;8.662;2022-12-07T11:23:56;101.67;;;96.13;;
11039;SDS011;5573;49.592;8.662;2022-12-07T11:26:34;109.37;;;103.50;;
11039;SDS011;5573;49.592;8.662;2022-12-07T11:29:14;116.97;;;110.43;;
11039;SDS011;5573;49.592;8.662;2022-12-07T11:31:57;104.00;;;98.30;;
11039;SDS011;5573;49.592;8.662;2022-12-07T11:34:37;114.17;;;107.87;;
11039;SDS011;5573;49.592;8.662;2022-12-07T11:37:13;116.77;;;110.43;;
11039;SDS011;5573;49.592;8.662;2022-12-07T11:39:47;126.27;;;119.30;;
11039;SDS011;5573;49.592;8.662;2022-12-07T11:42:20;121.13;;;114.57;;
11039;SDS011;5573;49.592;8.662;2022-12-07T11:44:52;126.37;;;119.37;;
11039;SDS011;5573;49.592;8.662;2022-12-07T11:47:25;120.47;;;113.60;;
11039;SDS011;5573;49.592;8.662;2022-12-07T11:49:58;126.90;;;119.77;;
11039;SDS011;5573;49.592;8.662;2022-12-07T11:52:41;134.73;;;127.33;;
11039;SDS011;5573;49.592;8.662;2022-12-07T11:55:19;128.53;;;121.60;;
11039;SDS011;5573;49.592;8.662;2022-12-07T11:57:53;138.03;;;130.37;;
11039;SDS011;5573;49.592;8.662;2022-12-07T12:00:25;128.07;;;121.07;;
11039;SDS011;5573;49.592;8.662;2022-12-07T12:02:54;154.33;;;145.70;;
11039;SDS011;5573;49.592;8.662;2022-12-07T12:05:27;135.10;;;127.60;;
11039;SDS011;5573;49.592;8.662;2022-12-07T12:07:59;145.30;;;136.97;;
11039;SDS011;5573;49.592;8.662;2022-12-07T12:10:55;137.37;;;129.93;;
11039;SDS011;5573;49.592;8.662;2022-12-07T12:13:32;148.77;;;140.47;;
11039;SDS011;5573;49.592;8.662;2022-12-07T12:16:40;144.60;;;136.60;;
11039;SDS011;5573;49.592;8.662;2022-12-07T12:19:22;160.27;;;151.53;;
11039;SDS011;5573;49.592;8.662;2022-12-07T12:22:02;155.03;;;146.47;;
11039;SDS011;5573;49.592;8.662;2022-12-07T12:24:38;163.33;;;154.40;;
11039;SDS011;5573;49.592;8.662;2022-12-07T12:27:09;164.80;;;155.73;;
11039;SDS011;5573;49.592;8.662;2022-12-07T12:29:45;158.63;;;149.77;;
11039;SDS011;5573;49.592;8.662;2022-12-07T12:32:21;161.93;;;153.03;;
11039;SDS011;5573;49.592;8.662;2022-12-07T12:34:58;161.33;;;152.40;;
11039;SDS011;5573;49.592;8.662;2022-12-07T12:37:39;174.30;;;164.73;;
11039;SDS011;5573;49.592;8.662;2022-12-07T12:46:35;148.30;;;140.17;;
11039;SDS011;5573;49.592;8.662;2022-12-07T12:55:26;140.03;;;132.27;;
11039;SDS011;5573;49.592;8.662;2022-12-07T12:58:29;145.83;;;137.70;;
11039;SDS011;5573;49.592;8.662;2022-12-07T13:04:18;146.60;;;138.73;;
11039;SDS011;5573;49.592;8.662;2022-12-07T13:07:09;139.53;;;131.93;;
11039;SDS011;5573;49.592;8.662;2022-12-07T13:09:42;147.00;;;139.07;;
11039;SDS011;5573;49.592;8.662;2022-12-07T13:12:12;144.27;;;136.43;;
11039;SDS011;5573;49.592;8.662;2022-12-07T13:20:40;144.37;;;136.57;;
11039;SDS011;5573;49.592;8.662;2022-12-07T13:23:12;150.90;;;142.80;;
11039;SDS011;5573;49.592;8.662;2022-12-07T13:25:45;164.20;;;155.33;;
11039;SDS011;5573;49.592;8.662;2022-12-07T13:28:18;155.07;;;146.63;;
11039;SDS011;5573;49.592;8.662;2022-12-07T13:33:53;144.07;;;136.47;;
11039;SDS011;5573;49.592;8.662;2022-12-07T13:36:22;158.63;;;149.87;;
11039;SDS011;5573;49.592;8.662;2022-12-07T13:38:52;161.90;;;152.93;;
11039;SDS011;5573;49.592;8.662;2022-12-07T13:41:22;168.10;;;158.70;;
11039;SDS011;5573;49.592;8.662;2022-12-07T13:43:53;163.37;;;154.50;;
11039;SDS011;5573;49.592;8.662;2022-12-07T13:46:31;167.53;;;157.80;;
11039;SDS011;5573;49.592;8.662;2022-12-07T13:49:16;155.33;;;146.80;;
11039;SDS011;5573;49.592;8.662;2022-12-07T13:51:47;155.70;;;147.23;;
11039;SDS011;5573;49.592;8.662;2022-12-07T13:54:15;154.60;;;146.33;;
11039;SDS011;5573;49.592;8.662;2022-12-07T13:56:43;162.40;;;153.80;;
11039;SDS011;5573;49.592;8.662;2022-12-07T13:59:16;182.50;;;172.70;;
11039;SDS011;5573;49.592;8.662;2022-12-07T14:01:46;169.70;;;160.40;;
11039;SDS011;5573;49.592;8.662;2022-12-07T14:04:26;183.90;;;173.87;;
11039;SDS011;5573;49.592;8.662;2022-12-07T14:06:59;170.57;;;161.23;;
11039;SDS011;5573;49.592;8.662;2022-12-07T14:09:29;187.53;;;177.20;;
11039;SDS011;5573;49.592;8.662;2022-12-07T14:11:57;155.00;;;146.57;;
11039;SDS011;5573;49.592;8.662;2022-12-07T14:14:26;174.07;;;164.27;;
11039;SDS011;5573;49.592;8.662;2022-12-07T14:17:08;190.60;;;179.07;;
11039;SDS011;5573;49.592;8.662;2022-12-07T14:19:48;179.87;;;168.83;;
11039;SDS011;5573;49.592;8.662;2022-12-07T14:22:22;173.17;;;163.20;;
11039;SDS011;5573;49.592;8.662;2022-12-07T14:25:14;173.90;;;164.07;;
11039;SDS011;5573;49.592;8.662;2022-12-07T14:27:49;163.77;;;154.80;;
11039;SDS011;5573;49.592;8.662;2022-12-07T14:30:19;165.70;;;156.37;;
11039;SDS011;5573;49.592;8.662;2022-12-07T14:32:48;177.77;;;168.03;;
11039;SDS011;5573;49.592;8.662;2022-12-07T14:35:21;165.97;;;156.93;;
11039;SDS011;5573;49.592;8.662;2022-12-07T14:37:49;176.60;;;166.67;;
11039;SDS011;5573;49.592;8.662;2022-12-07T14:40:17;191.87;;;181.53;;
11039;SDS011;5573;49.592;8.662;2022-12-07T14:42:49;169.73;;;160.57;;
11039;SDS011;5573;49.592;8.662;2022-12-07T14:45:19;171.57;;;162.47;;
11039;SDS011;5573;49.592;8.662;2022-12-07T14:47:49;162.57;;;153.50;;
11039;SDS011;5573;49.592;8.662;2022-12-07T14:50:38;159.40;;;150.77;;
11039;SDS011;5573;49.592;8.662;2022-12-07T14:53:29;148.90;;;141.00;;
11039;SDS011;5573;49.592;8.662;2022-12-07T14:56:00;150.17;;;142.07;;
11039;SDS011;5573;49.592;8.662;2022-12-07T14:58:28;164.80;;;155.67;;
11039;SDS011;5573;49.592;8.662;2022-12-07T15:00:56;174.47;;;164.77;;
11039;SDS011;5573;49.592;8.662;2022-12-07T15:03:24;168.70;;;159.77;;
11039;SDS011;5573;49.592;8.662;2022-12-07T15:05:53;164.13;;;155.10;;
11039;SDS011;5573;49.592;8.662;2022-12-07T15:08:21;152.83;;;144.50;;
11039;SDS011;5573;49.592;8.662;2022-12-07T15:10:48;173.33;;;163.97;;
11039;SDS011;5573;49.592;8.662;2022-12-07T15:13:16;169.30;;;160.20;;
11039;SDS011;5573;49.592;8.662;2022-12-07T15:16:01;151.40;;;143.23;;
11039;SDS011;5573;49.592;8.662;2022-12-07T15:18:29;151.90;;;143.67;;
11039;SDS011;5573;49.592;8.662;2022-12-07T15:20:58;167.23;;;158.20;;
11039;SDS011;5573;49.592;8.662;2022-12-07T15:23:26;151.00;;;142.60;;
11039;SDS011;5573;49.592;8.662;2022-12-07T15:25:54;156.73;;;148.13;;
11039;SDS011;5573;49.592;8.662;2022-12-07T15:28:22;165.53;;;156.60;;
11039;SDS011;5573;49.592;8.662;2022-12-07T15:30:50;157.30;;;148.73;;
11039;SDS011;5573;49.592;8.662;2022-12-07T15:33:19;158.73;;;150.23;;
11039;SDS011;5573;49.592;8.662;2022-12-07T15:35:47;167.57;;;158.53;;
11039;SDS011;5573;49.592;8.662;2022-12-07T15:38:15;156.37;;;147.87;;
11039;SDS011;5573;49.592;8.662;2022-12-07T15:41:03;155.93;;;147.40;;
11039;SDS011;5573;49.592;8.662;2022-12-07T15:43:31;155.97;;;147.40;;
11039;SDS011;5573;49.592;8.662;2022-12-07T15:46:17;160.57;;;152.07;;
11039;SDS011;5573;49.592;8.662;2022-12-07T15:48:45;156.57;;;147.97;;
11039;SDS011;5573;49.592;8.662;2022-12-07T15:51:12;143.03;;;135.33;;
11039;SDS011;5573;49.592;8.662;2022-12-07T15:53:46;157.77;;;149.37;;
11039;SDS011;5573;49.592;8.662;2022-12-07T15:56:14;157.50;;;148.67;;
11039;SDS011;5573;49.592;8.662;2022-12-07T15:58:42;163.57;;;154.93;;
11039;SDS011;5573;49.592;8.662;2022-12-07T16:01:10;163.27;;;154.43;;